M I D A S
Marine Information and Data Acquisition System
Tripno 1250 of the Zeeleeuw from 2007-04-23 07:07:39 to 2007-04-23 14:47:49
Back to CruiseResearch ActivitiesStationsMapUnderway DataData graphs

EquipmentUnitsComment
TimeDGPSUTC
LatitudeDGPSDM.mWGS84
LongitudeDGPSDM.mWGS84
HeadingGyrodeg 
SOGDGPSknotsSpeed over ground
COGDGPSdegCourse over ground
DepthEcho soundermeters200 kHz
Missing or incorrect values are displayed as -999
Navigation data collected by the RV Zeeleeuw from 2007-04-23 06:44:59 to 2007-04-23 15:01:30
Time Latitude Longitude Heading SOG COG Depth
2007-04-23 06:46:04 51°13.606 2°56.075 129.1 1 127 -999
2007-04-23 06:47:04 51°13.593 2°56.097 146.1 1.1 141 -999
2007-04-23 06:48:04 51°13.569 2°56.123 147.9 2.5 141 12.3
2007-04-23 06:49:04 51°13.531 2°56.185 133.9 4.3 117 12.4
2007-04-23 06:50:04 51°13.544 2°56.277 55.1 1.7 48 9.9
2007-04-23 06:51:04 51°13.539 2°56.28 31.2 0.2 116 -999
2007-04-23 06:52:04 51°13.54 2°56.285 12.9 0.8 174 4.6
2007-04-23 06:53:04 51°13.544 2°56.287 352.1 0.2 57 -999
2007-04-23 06:54:04 51°13.533 2°56.295 338.7 0.6 340 -999
2007-04-23 06:55:04 51°13.549 2°56.234 281.8 3.9 277 10.3
2007-04-23 06:56:04 51°13.561 2°56.124 289 4.4 288 12.1
2007-04-23 06:57:04 51°13.596 2°56.021 307.5 4.5 303 12.1
2007-04-23 06:58:04 51°13.645 2°55.914 311.4 5.4 308 11.5
2007-04-23 06:59:04 51°13.703 2°55.795 312.7 6 305 4.8
2007-04-23 07:00:04 51°13.778 2°55.684 328.8 6.4 326 12
2007-04-23 07:01:04 51°13.877 2°55.606 340.2 7.2 336 12
2007-04-23 07:02:04 51°13.994 2°55.522 341.9 8 336 -999
2007-04-23 07:03:04 51°14.118 2°55.431 337.6 8.2 332 4.6
2007-04-23 07:04:04 51°14.245 2°55.282 323.3 11.1 315 4.6
2007-04-23 07:05:03 51°14.379 2°55.026 314.1 13.2 311 11.9
2007-04-23 07:06:04 51°14.56 2°54.81 333.7 13.3 329 10.7
2007-04-23 07:07:04 51°14.751 2°54.628 331.8 13.3 328 10.7
2007-04-23 07:08:04 51°14.94 2°54.446 333.4 13.2 329 10.1
2007-04-23 07:09:04 51°15.127 2°54.264 334.1 13.3 330 9.8
2007-04-23 07:10:04 51°15.316 2°54.078 334.2 13.3 329 10.4
2007-04-23 07:11:04 51°15.502 2°53.894 332.8 13.2 328 11.1
2007-04-23 07:12:04 51°15.694 2°53.722 335.7 13.3 331 11.6
2007-04-23 07:13:04 51°15.888 2°53.552 335.3 13.4 331 12.1
2007-04-23 07:14:04 51°16.088 2°53.399 341.1 13.4 337 12.7
2007-04-23 07:15:04 51°16.292 2°53.256 340 13.4 336 12.7
2007-04-23 07:16:04 51°16.495 2°53.112 339.7 13.3 334 12.7
2007-04-23 07:17:04 51°16.695 2°52.953 337.1 13.4 334 12.1
2007-04-23 07:18:04 51°16.896 2°52.797 337.4 13.3 335 10
2007-04-23 07:19:04 51°17.097 2°52.638 336.7 13.4 332 10.7
2007-04-23 07:20:04 51°17.294 2°52.477 337 13.3 333 10.9
2007-04-23 07:21:04 51°17.481 2°52.288 328.3 13.3 325 11.5
2007-04-23 07:22:04 51°17.667 2°52.095 331 13.3 328 11.3
2007-04-23 07:23:05 51°17.854 2°51.897 330 13.3 324 11.2
2007-04-23 07:24:04 51°18.022 2°51.678 323.4 13.3 319 11.4
2007-04-23 07:25:04 51°18.191 2°51.447 322.7 13.4 320 12.7
2007-04-23 07:26:04 51°18.329 2°51.261 322.7 9 320 13.8
2007-04-23 07:27:04 51°18.42 2°51.13 316.3 6 313 14.4
2007-04-23 07:28:04 51°18.468 2°51.024 305.2 4.4 310 14.7
2007-04-23 07:29:04 51°18.495 2°50.98 306.3 0.5 350 14.8
2007-04-23 07:30:04 51°18.505 2°50.98 319.3 0.6 358 14.8
2007-04-23 07:31:05 51°18.516 2°50.981 330.9 0.6 2 -999
2007-04-23 07:32:04 51°18.528 2°50.983 340.7 0.7 8 14.9
2007-04-23 07:33:04 51°18.539 2°50.987 349.1 0.7 14 14.9
2007-04-23 07:34:04 51°18.549 2°50.991 352.4 0.7 15 14.8
2007-04-23 07:35:04 51°18.56 2°50.996 352.6 0.6 14 14.9
2007-04-23 07:36:04 51°18.585 2°50.997 355.9 4.1 359 14.9
2007-04-23 07:37:04 51°18.677 2°51.112 64.5 9.7 69 15
2007-04-23 07:38:04 51°18.724 2°51.397 76.1 11.7 70 14.9
2007-04-23 07:39:05 51°18.795 2°51.698 75.2 12.3 70 14.6
2007-04-23 07:40:04 51°18.87 2°52.02 74.6 13.3 70 14.2
2007-04-23 07:41:05 51°18.947 2°52.359 75.1 13.3 70 13.7
2007-04-23 07:42:04 51°19.021 2°52.688 74.7 13.3 70 13.3
2007-04-23 07:43:04 51°19.096 2°53.022 74.7 13.3 71 13
2007-04-23 07:44:04 51°19.171 2°53.356 75.7 13.4 70 12.8
2007-04-23 07:45:04 51°19.246 2°53.691 75.5 13.4 70 12.8
2007-04-23 07:46:04 51°19.321 2°54.027 74.7 13.4 70 12.7
2007-04-23 07:47:04 51°19.396 2°54.36 75.7 13.3 70 12.7
2007-04-23 07:48:04 51°19.47 2°54.693 75.4 13.2 71 12.7
2007-04-23 07:49:04 51°19.545 2°55.024 75.2 13.3 70 12.6
2007-04-23 07:50:05 51°19.623 2°55.36 74.9 13.3 70 12.6
2007-04-23 07:51:04 51°19.696 2°55.685 75.3 13.2 70 12.4
2007-04-23 07:52:04 51°19.771 2°56.015 75.3 13.1 71 12.2
2007-04-23 07:53:04 51°19.845 2°56.344 75.2 13.1 70 12
2007-04-23 07:54:05 51°19.92 2°56.676 75 13.1 72 12.2
2007-04-23 07:55:04 51°19.994 2°56.996 74.8 13 69 11.8
2007-04-23 07:56:04 51°20.068 2°57.321 75.2 13 70 11.8
2007-04-23 07:57:05 51°20.143 2°57.654 74.9 13.1 70 11.7
2007-04-23 07:58:04 51°20.216 2°57.976 75.1 13.1 69 11.9
2007-04-23 07:59:05 51°20.291 2°58.31 74.7 13.1 70 11.5
2007-04-23 08:00:04 51°20.364 2°58.632 75.5 13 70 11.4
2007-04-23 08:01:05 51°20.439 2°58.962 75.3 13 70 11.4
2007-04-23 08:02:04 51°20.51 2°59.28 75 12.8 71 11.3
2007-04-23 08:03:04 51°20.58 2°59.604 75.4 12.9 70 11.2
2007-04-23 08:04:05 51°20.654 2°59.931 75 12.9 70 11.3
2007-04-23 08:05:04 51°20.727 3°0.251 74.9 13 71 11.2
2007-04-23 08:06:05 51°20.802 3°0.581 75.4 13 69 11.1
2007-04-23 08:07:04 51°20.877 3°0.9 75.7 13 70 11.2
2007-04-23 08:08:04 51°20.949 3°1.225 75.2 12.9 70 11.1
2007-04-23 08:09:04 51°21.021 3°1.549 75.8 13 70 11.1
2007-04-23 08:10:05 51°21.096 3°1.878 75.3 13 70 11.2
2007-04-23 08:11:04 51°21.16 3°2.202 80.3 12.9 75 11.2
2007-04-23 08:12:04 51°21.213 3°2.535 80.2 13 77 11.2
2007-04-23 08:13:05 51°21.267 3°2.875 79.8 12.9 75 11.1
2007-04-23 08:14:04 51°21.32 3°3.202 80.4 12.9 76 11.2
2007-04-23 08:15:05 51°21.376 3°3.54 79.8 13 75 11.2
2007-04-23 08:16:04 51°21.429 3°3.866 80.5 12.9 76 11.3
2007-04-23 08:17:05 51°21.485 3°4.205 80.1 12.9 76 11.2
2007-04-23 08:18:04 51°21.537 3°4.53 80.5 12.8 75 11.2
2007-04-23 08:19:04 51°21.591 3°4.859 79.8 12.8 75 11.3
2007-04-23 08:20:05 51°21.645 3°5.193 80.2 12.7 76 11.4
2007-04-23 08:21:05 51°21.698 3°5.521 80.2 12.7 75 11.3
2007-04-23 08:22:05 51°21.751 3°5.847 80.5 12.6 76 11.3
2007-04-23 08:23:04 51°21.802 3°6.166 80.5 12.5 75 11.4
2007-04-23 08:24:05 51°21.854 3°6.494 80.2 12.5 77 11.5
2007-04-23 08:25:04 51°21.906 3°6.81 79.9 12.5 75 11.7
2007-04-23 08:26:05 51°21.958 3°7.138 80.7 12.5 76 11.8
2007-04-23 08:27:04 51°22.009 3°7.454 80 12.5 77 12
2007-04-23 08:28:04 51°22.058 3°7.773 75.1 12.5 68 11.9
2007-04-23 08:29:05 51°22.133 3°8.087 76.9 12.4 72 12.1
2007-04-23 08:30:04 51°22.185 3°8.4 82.3 12.4 77 12.3
2007-04-23 08:31:05 51°22.22 3°8.728 86.9 12.3 85 12.4
2007-04-23 08:32:04 51°22.227 3°9.047 93.9 12.1 88 12.6
2007-04-23 08:33:05 51°22.24 3°9.373 90.7 12.1 86 12.8
2007-04-23 08:34:04 51°22.242 3°9.685 94.9 11.9 92 13.3
2007-04-23 08:35:05 51°22.233 3°10 94.8 11.6 90 13.7
2007-04-23 08:36:05 51°22.245 3°10.308 86.3 11.6 82 14.5
2007-04-23 08:37:05 51°22.281 3°10.617 82.1 11.9 79 18.5
2007-04-23 08:38:05 51°22.316 3°10.931 82.8 12 80 16.5
2007-04-23 08:39:04 51°22.349 3°11.237 82.9 11.9 81 15.9
2007-04-23 08:40:05 51°22.385 3°11.553 83.4 11.9 80 15.5
2007-04-23 08:41:04 51°22.42 3°11.86 83.2 11.9 79 15.5
2007-04-23 08:42:05 51°22.455 3°12.175 83.4 11.8 79 14.5
2007-04-23 08:43:04 51°22.493 3°12.477 82.8 11.8 78 14
2007-04-23 08:44:04 51°22.533 3°12.774 83.5 10.4 78 13.2
2007-04-23 08:45:05 51°22.564 3°12.998 83.5 6.4 76 12.7
2007-04-23 08:46:05 51°22.587 3°13.116 78 3.7 62 12.4
2007-04-23 08:47:05 51°22.604 3°13.183 89.5 1.9 81 12.2
2007-04-23 08:48:04 51°22.608 3°13.19 87.9 0.3 357 12.2
2007-04-23 08:49:05 51°22.613 3°13.185 91.7 0.3 310 12.2
2007-04-23 08:50:04 51°22.615 3°13.176 100.7 0.5 281 12.3
2007-04-23 08:51:05 51°22.615 3°13.16 110.9 0.7 266 12.3
2007-04-23 08:52:04 51°22.614 3°13.138 119.7 0.9 266 12.3
2007-04-23 08:53:05 51°22.613 3°13.11 124.9 1.1 267 12.3
2007-04-23 08:54:05 51°22.602 3°13.124 111.9 3.8 103 12.3
2007-04-23 08:55:04 51°22.658 3°13.252 56.2 7.8 43 11.9
2007-04-23 08:56:05 51°22.784 3°13.451 54.3 11.7 46 11
2007-04-23 08:57:05 51°22.918 3°13.689 57.2 12.2 49 10.3
2007-04-23 08:58:05 51°23.051 3°13.935 57.1 12.2 49 9.8
2007-04-23 08:59:04 51°23.192 3°14.163 52.6 12.3 42 9.6
2007-04-23 09:00:05 51°23.343 3°14.389 53.3 12.2 44 9.5
2007-04-23 09:01:05 51°23.497 3°14.605 49.5 12.4 41 10.5
2007-04-23 09:02:05 51°23.653 3°14.819 50.2 12.4 41 11.5
2007-04-23 09:03:05 51°23.813 3°15.022 45 12.4 32 11.4
2007-04-23 09:04:04 51°23.995 3°15.177 39.6 12.6 28 11.8
2007-04-23 09:05:05 51°24.189 3°15.326 36.4 12.9 23 11.7
2007-04-23 09:06:04 51°24.385 3°15.46 35.4 13.2 23 15.3
2007-04-23 09:07:05 51°24.59 3°15.601 36.5 13.1 26 17.8
2007-04-23 09:08:05 51°24.774 3°15.779 45 12.9 33 17.4
2007-04-23 09:09:05 51°24.945 3°15.982 48.7 12.8 37 14.7
2007-04-23 09:10:05 51°25.114 3°16.192 50.7 12.9 40 14
2007-04-23 09:11:05 51°25.256 3°16.436 61 12.3 53 11.6
2007-04-23 09:12:05 51°25.381 3°16.697 60.9 12.4 52 10
2007-04-23 09:13:05 51°25.503 3°16.966 61.8 12.5 54 9.2
2007-04-23 09:14:05 51°25.626 3°17.235 62 12.5 54 8.8
2007-04-23 09:15:04 51°25.747 3°17.496 61.9 12.2 53 8.4
2007-04-23 09:16:05 51°25.854 3°17.711 61.3 7.6 54 8.5
2007-04-23 09:17:04 51°25.884 3°17.825 79.2 3.4 64 8.6
2007-04-23 09:18:05 51°25.907 3°17.873 75 0.7 5 8.5
2007-04-23 09:19:05 51°25.914 3°17.87 95.1 0.4 321 8.6
2007-04-23 09:20:04 51°25.917 3°17.859 102.7 0.5 284 8.5
2007-04-23 09:21:05 51°25.919 3°17.843 111 0.7 274 8.5
2007-04-23 09:22:05 51°25.92 3°17.821 116.9 0.9 272 8.5
2007-04-23 09:23:05 51°25.913 3°17.806 136.6 1.5 184 8.5
2007-04-23 09:24:04 51°25.86 3°17.763 199.8 6.8 219 8.5
2007-04-23 09:25:05 51°25.784 3°17.502 254 13.3 255 8.2
2007-04-23 09:26:05 51°25.756 3°17.132 268.7 14.3 266 8
2007-04-23 09:27:05 51°25.736 3°16.752 267.4 14.3 265 7.8
2007-04-23 09:28:05 51°25.712 3°16.376 264.4 14.1 258 7.7
2007-04-23 09:29:05 51°25.658 3°16.013 260.2 14.1 260 7.7
2007-04-23 09:30:05 51°25.625 3°15.644 262.8 13.9 259 7.7
2007-04-23 09:31:04 51°25.584 3°15.283 264.8 14 264 7.7
2007-04-23 09:32:05 51°25.551 3°14.904 261.2 14.2 260 7.9
2007-04-23 09:33:05 51°25.517 3°14.525 262.8 14.4 261 8.4
2007-04-23 09:34:05 51°25.481 3°14.143 264.5 14.6 263 8.9
2007-04-23 09:35:05 51°25.443 3°13.761 260.9 14.5 261 9.2
2007-04-23 09:36:05 51°25.405 3°13.378 261.3 14.6 260 9.4
2007-04-23 09:37:05 51°25.365 3°12.995 261.7 14.6 261 9.5
2007-04-23 09:38:05 51°25.326 3°12.61 263 14.7 263 9.6
2007-04-23 09:39:05 51°25.3 3°12.221 264.7 14.7 263 9.5
2007-04-23 09:40:04 51°25.263 3°11.842 261.1 14.6 260 9.3
2007-04-23 09:41:05 51°25.22 3°11.454 262.3 14.6 260 9.1
2007-04-23 09:42:05 51°25.178 3°11.075 260.7 14.4 259 8.8
2007-04-23 09:43:05 51°25.13 3°10.702 261.9 14.2 260 7.9
2007-04-23 09:44:05 51°25.087 3°10.331 262 14.1 260 7.5
2007-04-23 09:45:05 51°25.044 3°9.963 261.8 14 259 7.1
2007-04-23 09:46:05 51°25 3°9.601 261.3 13.8 257 6.7
2007-04-23 09:47:05 51°24.947 3°9.245 260.8 13.7 258 -999
2007-04-23 09:48:05 51°24.885 3°8.889 252.8 14 254 7.5
2007-04-23 09:49:05 51°24.876 3°8.516 278.7 14.2 277 7.9
2007-04-23 09:50:05 51°24.933 3°8.155 294.6 13.9 291 7.8
2007-04-23 09:51:05 51°25.088 3°7.914 336.6 12.7 337 7
2007-04-23 09:52:05 51°25.294 3°7.863 9.6 12.6 6 7.4
2007-04-23 09:53:05 51°25.499 3°7.945 24 12.7 15 7.8
2007-04-23 09:54:05 51°25.708 3°8.013 21.5 12.8 17 8.1
2007-04-23 09:55:05 51°25.914 3°8.106 21 12.9 15 8.6
2007-04-23 09:56:05 51°26.117 3°8.208 24.1 12.8 16 8.3
2007-04-23 09:57:05 51°26.298 3°8.296 24.7 9.5 17 9.2
2007-04-23 09:58:04 51°26.397 3°8.36 49.7 4.6 41 9.8
2007-04-23 09:59:05 51°26.43 3°8.418 60.9 0.6 5 10
2007-04-23 10:00:05 51°26.436 3°8.41 42.1 0.4 323 9.9
2007-04-23 10:01:05 51°26.443 3°8.403 33.1 0.5 329 10
2007-04-23 10:02:05 51°26.451 3°8.395 23.7 0.6 330 10
2007-04-23 10:03:05 51°26.46 3°8.386 16.5 0.6 330 9.9
2007-04-23 10:04:05 51°26.468 3°8.377 9.4 0.7 327 9.9
2007-04-23 10:05:05 51°26.476 3°8.366 1.4 0.6 317 10
2007-04-23 10:06:05 51°26.484 3°8.355 353.7 0.6 313 9.9
2007-04-23 10:07:05 51°26.507 3°8.322 328.2 3.7 317 10.1
2007-04-23 10:08:05 51°26.578 3°8.185 311.1 9.6 305 10.1
2007-04-23 10:09:05 51°26.674 3°7.904 301.9 13.2 297 9.8
2007-04-23 10:10:05 51°26.783 3°7.592 306.7 13.5 302 10.1
2007-04-23 10:11:05 51°26.897 3°7.281 305.3 13.5 300 10.7
2007-04-23 10:12:05 51°27.01 3°6.969 305.2 13.5 301 11.3
2007-04-23 10:13:05 51°27.123 3°6.658 305.5 13.5 301 11.8
2007-04-23 10:14:05 51°27.238 3°6.351 305.6 13.4 301 12.5
2007-04-23 10:15:05 51°27.354 3°6.048 306.3 13.4 302 12.8
2007-04-23 10:16:05 51°27.47 3°5.749 306.1 13.1 302 13.2
2007-04-23 10:17:05 51°27.582 3°5.45 304.1 13 299 13.9
2007-04-23 10:18:05 51°27.693 3°5.152 306 13 301 13.8
2007-04-23 10:19:05 51°27.807 3°4.855 306.2 13.1 302 13.2
2007-04-23 10:20:05 51°27.919 3°4.555 304.8 13.1 300 14.7
2007-04-23 10:21:05 51°28.025 3°4.251 303.6 13 298 16.8
2007-04-23 10:22:05 51°28.125 3°3.942 301.9 13.1 297 18.7
2007-04-23 10:23:05 51°28.224 3°3.633 301.9 12.5 297 20.5
2007-04-23 10:24:05 51°28.269 3°3.459 292.9 3.6 291 21.5
2007-04-23 10:25:05 51°28.274 3°3.435 331.9 0.3 252 22
2007-04-23 10:26:05 51°28.273 3°3.431 353.2 0.1 266 -999
2007-04-23 10:27:05 51°28.274 3°3.428 358.9 0.1 324 -999
2007-04-23 10:28:05 51°28.275 3°3.429 2 0.1 19 22
2007-04-23 10:29:05 51°28.276 3°3.429 0.1 0.1 10 22
2007-04-23 10:30:05 51°28.301 3°3.406 330.2 4 315 21.7
2007-04-23 10:31:05 51°28.308 3°3.242 269.3 9.9 267 22.2
2007-04-23 10:32:05 51°28.29 3°2.906 266.3 13.4 261 22.5
2007-04-23 10:33:05 51°28.244 3°2.554 259.8 13.6 255 22.9
2007-04-23 10:34:05 51°28.188 3°2.202 260 13.7 255 22.9
2007-04-23 10:35:05 51°28.132 3°1.848 260.7 13.8 256 22.9
2007-04-23 10:36:05 51°28.077 3°1.492 260.2 13.8 256 22.5
2007-04-23 10:37:05 51°28.019 3°1.134 259.8 13.9 255 21.9
2007-04-23 10:38:05 51°27.96 3°0.774 260.2 14 255 21.2
2007-04-23 10:39:05 51°27.901 3°0.413 260.8 14 255 20.7
2007-04-23 10:40:05 51°27.842 3°0.054 260.3 14 256 18.4
2007-04-23 10:41:05 51°27.783 2°59.694 260.4 13.9 255 18.5
2007-04-23 10:42:05 51°27.723 2°59.336 259.8 14 255 18.1
2007-04-23 10:43:05 51°27.666 2°58.975 260.6 14 256 17.6
2007-04-23 10:44:05 51°27.607 2°58.614 260.1 13.9 255 17
2007-04-23 10:45:05 51°27.549 2°58.254 260.3 13.9 256 18.5
2007-04-23 10:46:05 51°27.492 2°57.893 260.5 14 256 22.9
2007-04-23 10:47:05 51°27.436 2°57.531 260.3 14 256 24.4
2007-04-23 10:48:05 51°27.38 2°57.169 260.2 14 257 25.1
2007-04-23 10:49:05 51°27.323 2°56.808 260 13.9 255 20.5
2007-04-23 10:50:05 51°27.265 2°56.446 260.5 14.1 255 24.5
2007-04-23 10:51:05 51°27.206 2°56.084 260.2 14 257 27.6
2007-04-23 10:52:05 51°27.149 2°55.722 259.9 13.9 256 29.2
2007-04-23 10:53:05 51°27.093 2°55.363 259.3 14 255 27.7
2007-04-23 10:54:05 51°27.034 2°55.001 260.7 14.1 256 27.1
2007-04-23 10:55:05 51°26.975 2°54.636 260.1 14.1 255 27.3
2007-04-23 10:56:05 51°26.914 2°54.269 260.5 14.4 255 23
2007-04-23 10:57:05 51°26.851 2°53.897 261 14.4 256 25.2
2007-04-23 10:58:05 51°26.792 2°53.529 260.2 14.2 256 27.5
2007-04-23 10:59:05 51°26.736 2°53.164 260 14 257 28.8
2007-04-23 11:00:05 51°26.688 2°52.799 261.9 14 258 27.9
2007-04-23 11:01:05 51°26.636 2°52.434 261.9 14.1 257 26.8
2007-04-23 11:02:05 51°26.586 2°52.067 262.7 14.1 258 25.1
2007-04-23 11:03:05 51°26.531 2°51.703 260.3 14.1 255 25.4
2007-04-23 11:04:05 51°26.474 2°51.34 259.8 14.1 256 25.5
2007-04-23 11:05:05 51°26.418 2°50.978 260.4 14.1 257 23.3
2007-04-23 11:06:05 51°26.361 2°50.613 260.2 14.2 256 22.7
2007-04-23 11:07:05 51°26.301 2°50.247 259.9 14.2 254 22.7
2007-04-23 11:08:05 51°26.238 2°49.882 261.1 14.3 255 22.3
2007-04-23 11:09:05 51°26.175 2°49.515 259.9 14.3 255 22.5
2007-04-23 11:10:05 51°26.112 2°49.151 260 14.1 255 22.8
2007-04-23 11:11:05 51°26.059 2°48.804 262 11.1 255 22.6
2007-04-23 11:12:05 51°26.019 2°48.6 258.6 5.3 249 23.1
2007-04-23 11:13:05 51°26.002 2°48.548 303.3 1.4 173 22.8
2007-04-23 11:14:05 51°25.979 2°48.547 323.7 1.3 184 4.6
2007-04-23 11:15:05 51°25.959 2°48.544 331.1 1.2 186 4.7
2007-04-23 11:16:05 51°25.94 2°48.54 338.9 1.1 189 23.2
2007-04-23 11:17:05 51°25.923 2°48.535 350.5 1 191 23.2
2007-04-23 11:18:05 51°25.918 2°48.524 356.7 1.9 333 23.2
2007-04-23 11:19:05 51°25.975 2°48.359 295.5 11.4 284 22.9
2007-04-23 11:20:05 51°25.947 2°48.016 255.7 13.7 244 22.7
2007-04-23 11:21:05 51°25.828 2°47.696 245.8 14.1 241 21.6
2007-04-23 11:22:05 51°25.712 2°47.368 244.9 14.1 240 24.1
2007-04-23 11:23:05 51°25.597 2°47.042 245.1 14.1 240 23.6
2007-04-23 11:24:05 51°25.483 2°46.714 245.3 14.2 241 24
2007-04-23 11:25:05 51°25.367 2°46.384 245.1 14.2 241 24.8
2007-04-23 11:26:05 51°25.251 2°46.058 245 14 240 24.4
2007-04-23 11:27:05 51°25.137 2°45.732 245.9 14 241 24.6
2007-04-23 11:28:05 51°25.012 2°45.417 240.3 14 236 24.7
2007-04-23 11:29:05 51°24.89 2°45.099 244.8 14 241 25.1
2007-04-23 11:30:05 51°24.777 2°44.771 244.8 14.1 240 23.7
2007-04-23 11:31:05 51°24.664 2°44.441 245.7 14.1 241 26.9
2007-04-23 11:32:05 51°24.552 2°44.111 245.2 14.2 242 21.7
2007-04-23 11:33:05 51°24.44 2°43.778 245.3 14.2 242 24.7
2007-04-23 11:34:05 51°24.328 2°43.445 245.3 14.3 242 24
2007-04-23 11:35:05 51°24.218 2°43.11 245.3 14.3 242 21.6
2007-04-23 11:36:05 51°24.105 2°42.773 244.2 14.3 241 25.8
2007-04-23 11:37:05 51°23.991 2°42.436 245.3 14.4 242 23.9
2007-04-23 11:38:05 51°23.879 2°42.097 245.6 14.4 243 26.2
2007-04-23 11:39:05 51°23.767 2°41.759 245.6 14.4 242 27.1
2007-04-23 11:40:05 51°23.654 2°41.422 245.7 14.4 242 27.1
2007-04-23 11:41:05 51°23.541 2°41.085 245.3 14.3 242 28.8
2007-04-23 11:42:05 51°23.429 2°40.749 245.9 14.3 242 28.3
2007-04-23 11:43:05 51°23.314 2°40.418 245.3 14.3 241 28.4
2007-04-23 11:44:05 51°23.198 2°40.086 245.7 14.3 242 28.7
2007-04-23 11:45:05 51°23.083 2°39.753 245.5 14.3 241 29.2
2007-04-23 11:46:05 51°22.969 2°39.419 245.2 14.4 242 29.1
2007-04-23 11:47:05 51°22.854 2°39.084 245 14.4 241 29.7
2007-04-23 11:48:05 51°22.74 2°38.748 245.3 14.4 242 29.3
2007-04-23 11:49:05 51°22.627 2°38.409 245.1 14.4 242 29.6
2007-04-23 11:50:05 51°22.513 2°38.073 244.5 14.4 241 29.6
2007-04-23 11:51:05 51°22.399 2°37.737 245.3 14.5 242 30.2
2007-04-23 11:52:05 51°22.287 2°37.396 245.5 14.5 242 29.7
2007-04-23 11:53:05 51°22.175 2°37.055 245 14.4 243 30
2007-04-23 11:54:05 51°22.066 2°36.714 245.3 14.3 243 30.4
2007-04-23 11:55:05 51°21.957 2°36.376 245.2 14.3 243 30.9
2007-04-23 11:56:05 51°21.847 2°36.039 245 14.3 243 30.7
2007-04-23 11:57:05 51°21.739 2°35.7 245.5 14.3 244 32.3
2007-04-23 11:58:05 51°21.63 2°35.362 245.3 14.4 243 30.2
2007-04-23 11:59:05 51°21.522 2°35.021 245.6 14.4 244 30.6
2007-04-23 12:00:05 51°21.415 2°34.678 245.3 14.4 244 33.9
2007-04-23 12:01:05 51°21.308 2°34.336 244.7 14.5 243 29.5
2007-04-23 12:02:05 51°21.199 2°33.993 244.9 14.5 243 30.7
2007-04-23 12:03:05 51°21.091 2°33.65 245.3 14.5 244 31.8
2007-04-23 12:04:05 51°20.981 2°33.306 244.7 14.6 243 30.5
2007-04-23 12:05:05 51°20.872 2°32.961 245 14.5 243 29.5
2007-04-23 12:06:05 51°20.764 2°32.616 245.7 14.5 243 29.8
2007-04-23 12:07:05 51°20.656 2°32.271 245.7 14.5 243 30.3
2007-04-23 12:08:05 51°20.546 2°31.927 244.7 14.5 243 27.6
2007-04-23 12:09:05 51°20.438 2°31.582 245.8 14.6 244 21.5
2007-04-23 12:10:05 51°20.331 2°31.234 245.1 14.6 244 18.3
2007-04-23 12:11:05 51°20.233 2°30.909 245.3 11.9 245 15.4
2007-04-23 12:12:05 51°20.153 2°30.63 245.9 12.3 247 13.9
2007-04-23 12:13:05 51°20.099 2°30.301 259.9 13 257 13.3
2007-04-23 12:14:05 51°20.052 2°30.017 252.9 8.9 250 13.5
2007-04-23 12:15:05 51°20.032 2°29.886 284.5 2 266 13.3
2007-04-23 12:16:05 51°20.028 2°29.853 320.8 1.2 260 5.8
2007-04-23 12:17:05 51°20.025 2°29.825 341.2 1 261 -999
2007-04-23 12:18:05 51°20.022 2°29.798 346.7 0.9 257 -999
2007-04-23 12:19:05 51°20.019 2°29.774 348.1 1 267 5.3
2007-04-23 12:20:05 51°20.038 2°29.71 302.4 4.3 284 26.4
2007-04-23 12:21:05 51°20 2°29.596 211.6 5.8 205 29
2007-04-23 12:22:05 51°19.924 2°29.673 119 8.2 125 24.9
2007-04-23 12:23:05 51°19.8 2°29.901 129.5 12.1 134 11.6
2007-04-23 12:24:05 51°19.68 2°30.158 120 12.1 122 12.8
2007-04-23 12:25:05 51°19.57 2°30.434 122.2 12.5 125 16.6
2007-04-23 12:26:05 51°19.446 2°30.704 123.5 12.7 127 21.8
2007-04-23 12:27:05 51°19.32 2°30.977 123.5 12.8 126 28.5
2007-04-23 12:28:05 51°19.195 2°31.251 122.9 12.7 126 29.9
2007-04-23 12:29:05 51°19.071 2°31.524 123.7 12.7 126 30
2007-04-23 12:30:05 51°18.947 2°31.799 122.6 12.8 127 29.7
2007-04-23 12:31:05 51°18.815 2°32.068 127.6 13 129 30.1
2007-04-23 12:32:05 51°18.68 2°32.336 127.7 12.9 130 30.2
2007-04-23 12:33:05 51°18.544 2°32.601 127.7 12.8 129 25.5
2007-04-23 12:34:05 51°18.409 2°32.866 127.1 12.9 129 24.5
2007-04-23 12:35:05 51°18.273 2°33.133 126.8 12.8 129 20.8
2007-04-23 12:36:05 51°18.136 2°33.392 127.7 12.7 130 21.7
2007-04-23 12:37:05 51°17.999 2°33.652 127.3 12.8 129 26.5
2007-04-23 12:38:05 51°17.865 2°33.915 126.8 12.8 129 27.6
2007-04-23 12:39:05 51°17.746 2°34.193 122 12.6 123 27.1
2007-04-23 12:40:05 51°17.633 2°34.485 120.9 13.1 121 23.1
2007-04-23 12:41:05 51°17.517 2°34.771 122.9 12.6 124 9.8
2007-04-23 12:42:05 51°17.403 2°35.057 121.9 12.9 122 11.6
2007-04-23 12:43:05 51°17.285 2°35.342 122.6 12.9 123 11.8
2007-04-23 12:44:05 51°17.165 2°35.629 120 13 121 13.5
2007-04-23 12:45:05 51°17.056 2°35.927 119.1 12.9 121 21.2
2007-04-23 12:46:05 51°16.937 2°36.212 123.7 12.9 127 26
2007-04-23 12:47:05 51°16.816 2°36.453 126.9 9.8 130 26.5
2007-04-23 12:48:05 51°16.723 2°36.621 123.2 6.5 128 25.9
2007-04-23 12:49:05 51°16.668 2°36.728 122.6 5 132 25.9
2007-04-23 12:50:05 51°16.609 2°36.788 145.6 3.4 168 26.2
2007-04-23 12:51:05 51°16.583 2°36.775 176.6 0.9 257 26.1
2007-04-23 12:52:05 51°16.579 2°36.751 165.8 1 249 26.5
2007-04-23 12:53:05 51°16.573 2°36.728 152.3 1 247 26.2
2007-04-23 12:54:05 51°16.566 2°36.705 138.9 1 238 26.4
2007-04-23 12:55:05 51°16.56 2°36.683 132.1 1 239 26.4
2007-04-23 12:56:05 51°16.55 2°36.671 130.9 1.9 159 26.4
2007-04-23 12:57:05 51°16.431 2°36.791 142.4 12.3 146 26.6
2007-04-23 12:58:05 51°16.229 2°36.926 163.2 13.6 169 26
2007-04-23 12:59:05 51°16.002 2°36.968 172.4 13.7 174 19.8
2007-04-23 13:00:05 51°15.775 2°36.982 177 13.4 178 11.2
2007-04-23 13:01:05 51°15.551 2°36.998 174.9 13.6 177 11.2
2007-04-23 13:02:05 51°15.32 2°37.017 175.9 13.7 178 12.4
2007-04-23 13:03:05 51°15.093 2°37.029 177 13.7 178 11.6
2007-04-23 13:04:05 51°14.864 2°37.045 176 13.6 177 10.5
2007-04-23 13:05:05 51°14.636 2°37.06 176.2 13.8 177 9.5
2007-04-23 13:06:05 51°14.404 2°37.074 175.8 14 178 11.2
2007-04-23 13:07:05 51°14.169 2°37.088 175.2 14.2 178 13.9
2007-04-23 13:08:05 51°13.934 2°37.108 172.5 14 175 19.8
2007-04-23 13:09:05 51°13.704 2°37.141 172.8 13.9 175 18.2
2007-04-23 13:10:05 51°13.479 2°37.173 173.5 13.1 176 8.3
2007-04-23 13:11:05 51°13.258 2°37.206 172.6 13.6 173 8.4
2007-04-23 13:12:05 51°13.03 2°37.236 173.4 13.7 174 9.2
2007-04-23 13:13:05 51°12.8 2°37.269 173.3 14 175 10.5
2007-04-23 13:14:05 51°12.568 2°37.304 173.1 14 175 10.9
2007-04-23 13:15:05 51°12.341 2°37.363 165.6 13.9 167 11.3
2007-04-23 13:16:05 51°12.111 2°37.418 174.7 14.1 178 11.7
2007-04-23 13:17:05 51°11.882 2°37.346 196.8 14.3 197 12.6
2007-04-23 13:18:05 51°11.657 2°37.233 196.6 14.2 197 13.3
2007-04-23 13:19:05 51°11.431 2°37.124 195.7 14.2 196 13.5
2007-04-23 13:20:05 51°11.203 2°37.015 196.2 14.3 197 13.1
2007-04-23 13:21:05 51°10.974 2°36.908 195.3 14.2 196 12.1
2007-04-23 13:22:05 51°10.748 2°36.805 196 14.1 195 10.2
2007-04-23 13:23:05 51°10.523 2°36.75 180.1 13.6 180 8.6
2007-04-23 13:24:05 51°10.3 2°36.828 155.4 13.6 154 16.1
2007-04-23 13:25:05 51°10.143 2°37.053 122.6 12.5 120 17.5
2007-04-23 13:26:05 51°10.11 2°37.375 91.9 12.4 88 17.6
2007-04-23 13:27:05 51°10.167 2°37.685 71.1 12.3 69 17.5
2007-04-23 13:28:05 51°10.231 2°37.994 75.1 12.2 73 16.8
2007-04-23 13:29:05 51°10.299 2°38.298 70.6 12.2 69 16.4
2007-04-23 13:30:05 51°10.369 2°38.603 71.9 12.3 70 16.2
2007-04-23 13:31:05 51°10.435 2°38.912 73 12.3 72 16.3
2007-04-23 13:32:05 51°10.499 2°39.224 73.2 12.4 72 15.6
2007-04-23 13:33:05 51°10.566 2°39.536 72.2 12.5 71 15.1
2007-04-23 13:34:05 51°10.637 2°39.849 71.9 12.6 71 14.8
2007-04-23 13:35:05 51°10.705 2°40.165 72.9 12.7 71 14
2007-04-23 13:36:05 51°10.772 2°40.483 73.7 12.7 72 13.5
2007-04-23 13:37:05 51°10.838 2°40.804 73.4 12.8 72 13
2007-04-23 13:38:05 51°10.905 2°41.125 72.9 12.8 72 12.7
2007-04-23 13:39:05 51°10.973 2°41.442 72.7 12.1 70 12.4
2007-04-23 13:40:05 51°11.026 2°41.703 74.1 9.5 72 12.6
2007-04-23 13:41:05 51°11.073 2°41.916 72 7.7 71 12.6
2007-04-23 13:42:05 51°11.106 2°42.058 67.8 4.6 70 12.6
2007-04-23 13:43:05 51°11.11 2°42.106 79.7 0.9 84 12.7
2007-04-23 13:44:05 51°11.115 2°42.128 68.9 0.7 74 12.7
2007-04-23 13:45:05 51°11.117 2°42.144 59.9 0.6 58 12.8
2007-04-23 13:46:05 51°11.123 2°42.155 50.7 0.5 46 12.7
2007-04-23 13:47:05 51°11.141 2°42.193 59 4.2 64 12.8
2007-04-23 13:48:05 51°11.148 2°42.411 89.1 11.8 86 12.7
2007-04-23 13:49:05 51°11.161 2°42.742 88.3 12.7 87 12.9
2007-04-23 13:50:05 51°11.183 2°43.074 84.1 12.7 82 13.1
2007-04-23 13:51:05 51°11.217 2°43.404 80.5 12.6 77 13.1
2007-04-23 13:52:05 51°11.339 2°43.648 38.1 12.5 30 13.2
2007-04-23 13:53:05 51°11.532 2°43.79 29.5 13 24 12.7
2007-04-23 13:54:05 51°11.725 2°43.945 31.1 13 27 11.2
2007-04-23 13:55:05 51°11.915 2°44.103 32.3 12.5 29 8
2007-04-23 13:56:05 51°12.093 2°44.273 34.5 12.6 30 8
2007-04-23 13:57:05 51°12.253 2°44.496 52.1 13 51 8.4
2007-04-23 13:58:05 51°12.373 2°44.787 62.8 13.1 58 8.6
2007-04-23 13:59:05 51°12.49 2°45.078 62.7 13.1 61 8.7
2007-04-23 14:00:05 51°12.599 2°45.376 62.1 13 60 9
2007-04-23 14:01:05 51°12.714 2°45.667 60 13 56 9.7
2007-04-23 14:02:05 51°12.832 2°45.951 60 12.8 56 10.3
2007-04-23 14:03:05 51°12.95 2°46.236 60.4 12.8 57 11
2007-04-23 14:04:05 51°13.066 2°46.519 60.2 12.8 57 11.1
2007-04-23 14:05:05 51°13.182 2°46.802 60.6 12.8 58 11.3
2007-04-23 14:06:05 51°13.299 2°47.084 60.1 12.8 57 11.4
2007-04-23 14:07:05 51°13.418 2°47.364 60.6 12.8 57 11.5
2007-04-23 14:08:05 51°13.536 2°47.646 60.4 12.7 57 11.7
2007-04-23 14:09:05 51°13.654 2°47.928 59.5 12.8 56 11.7
2007-04-23 14:10:05 51°13.771 2°48.21 60.4 12.8 57 11.7
2007-04-23 14:11:05 51°13.889 2°48.494 60.2 12.8 57 11.7
2007-04-23 14:12:05 51°14.007 2°48.78 60.7 13 57 11.8
2007-04-23 14:13:05 51°14.127 2°49.062 58.7 12.8 55 11.9
2007-04-23 14:14:05 51°14.252 2°49.341 58 12.9 55 12
2007-04-23 14:15:05 51°14.378 2°49.62 57.7 13 54 12.3
2007-04-23 14:16:05 51°14.512 2°49.891 54.8 13 50 12.4
2007-04-23 14:17:05 51°14.658 2°50.146 52.2 13 48 12.6
2007-04-23 14:18:05 51°14.805 2°50.401 52 13.1 48 12.7
2007-04-23 14:19:05 51°14.945 2°50.665 56.9 13 52 12.8
2007-04-23 14:20:05 51°15.068 2°50.947 58.9 12.9 56 12.9
2007-04-23 14:21:05 51°15.184 2°51.237 62.5 12.9 58 12.9
2007-04-23 14:22:05 51°15.298 2°51.528 62.6 13 58 12.9
2007-04-23 14:23:05 51°15.409 2°51.822 64.4 13 61 12.9
2007-04-23 14:24:05 51°15.511 2°52.124 66.7 12.8 63 12.7
2007-04-23 14:25:05 51°15.611 2°52.424 65.4 12.8 61 12.5
2007-04-23 14:26:05 51°15.714 2°52.722 65.9 12.9 61 12.4
2007-04-23 14:27:05 51°15.819 2°53.021 65 12.8 61 12.3
2007-04-23 14:28:05 51°15.922 2°53.321 65.9 13 62 12.2
2007-04-23 14:29:05 51°16.024 2°53.625 65.4 13 62 12
2007-04-23 14:30:05 51°16.128 2°53.925 64.6 12.1 61 11.9
2007-04-23 14:31:05 51°16.213 2°54.176 65.2 9.2 63 12
2007-04-23 14:32:05 51°16.272 2°54.315 48.8 3.5 54 12.2
2007-04-23 14:33:05 51°16.277 2°54.339 78.8 0.5 93 12.2
2007-04-23 14:34:05 51°16.276 2°54.354 91.5 0.6 100 12.2
2007-04-23 14:35:05 51°16.273 2°54.37 105.2 0.6 111 12.2
2007-04-23 14:36:05 51°16.27 2°54.386 115.2 0.6 110 12.2
2007-04-23 14:37:05 51°16.266 2°54.403 121.4 0.7 110 12.3
2007-04-23 14:38:05 51°16.261 2°54.422 127.7 1.5 125 12.2
2007-04-23 14:39:05 51°16.192 2°54.471 172.4 8.3 168 12.2
2007-04-23 14:40:05 51°15.995 2°54.51 177.7 13 174 11.8
2007-04-23 14:41:05 51°15.777 2°54.504 187.5 13.1 184 11.3
2007-04-23 14:42:05 51°15.559 2°54.483 186.8 13.2 184 10.6
2007-04-23 14:43:05 51°15.342 2°54.468 186 13 182 10.1
2007-04-23 14:44:05 51°15.128 2°54.464 184.7 12.8 180 9.5
2007-04-23 14:45:05 51°14.913 2°54.48 180.5 12.9 174 10.1
2007-04-23 14:46:05 51°14.709 2°54.584 157.9 13.1 150 10.8
2007-04-23 14:47:05 51°14.532 2°54.789 147.3 13.2 140 10.8
2007-04-23 14:48:05 51°14.377 2°55.04 134.4 13.3 127 12.1
2007-04-23 14:49:05 51°14.248 2°55.286 138.3 10.2 138 13.1
2007-04-23 14:50:05 51°14.148 2°55.383 159.9 5.3 155 -999
2007-04-23 14:51:05 51°14.072 2°55.44 157.2 5.4 154 12.4
2007-04-23 14:52:05 51°13.983 2°55.508 157.7 6.3 155 12.5
2007-04-23 14:53:05 51°13.886 2°55.582 158.3 6.5 155 12.1
2007-04-23 14:54:05 51°13.807 2°55.647 150.6 4.4 145 12.3
2007-04-23 14:55:05 51°13.761 2°55.713 141 3.5 136 12.1
2007-04-23 14:56:05 51°13.721 2°55.773 141.5 3.1 136 14
2007-04-23 14:57:05 51°13.689 2°55.831 133.8 2.7 127 11.4
2007-04-23 14:58:05 51°13.663 2°55.886 136.1 2.7 129 11.6
2007-04-23 14:59:05 51°13.629 2°55.955 130.7 3.6 123 11.8
2007-04-23 15:00:05 51°13.608 2°56.042 107 3.3 101 12.5
2007-04-23 15:01:05 51°13.602 2°56.098 116.3 0.3 98 6.9